createdAt,value
2023-01-03T00:00:58.363Z,1018.45
2023-01-03T00:01:58.381Z,1018.45
2023-01-03T00:02:58.285Z,1018.46
2023-01-03T00:03:58.367Z,1018.41
2023-01-03T00:04:58.293Z,1018.47
2023-01-03T00:05:58.248Z,1018.43
2023-01-03T00:06:58.249Z,1018.51
2023-01-03T00:07:58.234Z,1018.54
2023-01-03T00:08:58.232Z,1018.53
2023-01-03T00:09:58.214Z,1018.49
2023-01-03T00:10:58.200Z,1018.52
2023-01-03T00:11:58.204Z,1018.51
2023-01-03T00:12:58.179Z,1018.46
2023-01-03T00:13:58.157Z,1018.51
2023-01-03T00:14:58.176Z,1018.44
2023-01-03T00:15:58.142Z,1018.54
2023-01-03T00:16:58.229Z,1018.53
2023-01-03T00:17:58.117Z,1018.52
2023-01-03T00:18:58.111Z,1018.58
2023-01-03T00:19:58.131Z,1018.56
2023-01-03T00:20:58.092Z,1018.60
2023-01-03T00:21:58.076Z,1018.62
2023-01-03T00:22:58.057Z,1018.60
2023-01-03T00:23:58.047Z,1018.58
2023-01-03T00:24:58.082Z,1018.60
2023-01-03T00:25:58.027Z,1018.63
2023-01-03T00:26:58.030Z,1018.62
2023-01-03T00:27:58.025Z,1018.59
2023-01-03T00:28:57.996Z,1018.69
2023-01-03T00:29:57.993Z,1018.62
2023-01-03T00:30:58.011Z,1018.63
2023-01-03T00:31:57.970Z,1018.62
2023-01-03T00:32:57.948Z,1018.61
2023-01-03T00:33:57.938Z,1018.59
2023-01-03T00:35:03.105Z,1018.66
2023-01-03T00:35:58.932Z,1018.59
2023-01-03T00:36:57.905Z,1018.57
2023-01-03T00:37:57.898Z,1018.64
2023-01-03T00:38:57.880Z,1018.64
2023-01-03T00:39:57.877Z,1018.61
2023-01-03T00:40:57.866Z,1018.61
2023-01-03T00:41:57.865Z,1018.64
2023-01-03T00:42:57.835Z,1018.67
2023-01-03T00:43:57.851Z,1018.72
2023-01-03T00:44:57.834Z,1018.69
2023-01-03T00:45:57.839Z,1018.64
2023-01-03T00:46:57.809Z,1018.66
2023-01-03T00:47:57.775Z,1018.66
2023-01-03T00:48:57.774Z,1018.62
2023-01-03T00:49:57.756Z,1018.67
2023-01-03T00:50:57.752Z,1018.68
2023-01-03T00:51:57.744Z,1018.66
2023-01-03T00:52:57.732Z,1018.66
2023-01-03T00:53:57.716Z,1018.68
2023-01-03T00:54:57.706Z,1018.71
2023-01-03T00:55:57.686Z,1018.64
2023-01-03T00:56:57.688Z,1018.71
2023-01-03T00:57:57.668Z,1018.65
2023-01-03T00:58:57.674Z,1018.71
2023-01-03T00:59:57.670Z,1018.73
2023-01-03T01:00:57.686Z,1018.74
2023-01-03T01:01:57.729Z,1018.83
2023-01-03T01:02:57.842Z,1018.77
2023-01-03T01:03:57.656Z,1018.76
2023-01-03T01:04:57.627Z,1018.74
2023-01-03T01:05:57.583Z,1018.74
2023-01-03T01:06:57.581Z,1018.72
2023-01-03T01:07:57.552Z,1018.68
2023-01-03T01:08:57.550Z,1018.69
2023-01-03T01:09:57.548Z,1018.73
2023-01-03T01:10:57.538Z,1018.77
2023-01-03T01:11:57.513Z,1018.79
2023-01-03T01:12:57.503Z,1018.76
2023-01-03T01:13:57.516Z,1018.77
2023-01-03T01:14:57.486Z,1018.73
2023-01-03T01:15:57.614Z,1018.73
2023-01-03T01:16:57.470Z,1018.79
2023-01-03T01:17:57.454Z,1018.80
2023-01-03T01:18:57.460Z,1018.84
2023-01-03T01:19:57.435Z,1018.78
2023-01-03T01:20:57.426Z,1018.76
2023-01-03T01:21:57.393Z,1018.80
2023-01-03T01:22:57.388Z,1018.80
2023-01-03T01:23:57.383Z,1018.85
2023-01-03T01:24:57.372Z,1018.88
2023-01-03T01:25:57.355Z,1018.86
2023-01-03T01:26:57.358Z,1018.88
2023-01-03T01:27:57.366Z,1018.90
2023-01-03T01:28:57.327Z,1018.89
2023-01-03T01:29:57.325Z,1018.92
2023-01-03T01:30:57.337Z,1018.89
2023-01-03T01:31:57.317Z,1018.92
2023-01-03T01:32:57.277Z,1018.88
2023-01-03T01:33:57.267Z,1018.95
2023-01-03T01:34:57.260Z,1018.96
2023-01-03T01:35:57.262Z,1018.99
2023-01-03T01:36:57.236Z,1018.97
2023-01-03T01:37:57.221Z,1019.01
2023-01-03T01:38:57.208Z,1018.97
2023-01-03T01:39:57.207Z,1019.02
2023-01-03T01:40:57.189Z,1018.95
2023-01-03T01:41:57.207Z,1018.98
2023-01-03T01:42:57.167Z,1018.98
2023-01-03T01:43:57.149Z,1018.94
2023-01-03T01:44:57.156Z,1019.00
2023-01-03T01:45:57.219Z,1018.97
2023-01-03T01:46:57.129Z,1019.01
2023-01-03T01:47:57.188Z,1019.01
2023-01-03T01:48:57.107Z,1019.08
2023-01-03T01:49:57.093Z,1019.02
2023-01-03T01:50:57.074Z,1019.09
2023-01-03T01:51:57.075Z,1019.11
2023-01-03T01:52:57.063Z,1019.05
2023-01-03T01:53:57.052Z,1019.11
2023-01-03T01:54:57.026Z,1019.09
2023-01-03T01:55:57.042Z,1019.15
2023-01-03T01:56:57.010Z,1019.10
2023-01-03T01:57:56.997Z,1019.13
2023-01-03T01:58:56.987Z,1019.15
2023-01-03T01:59:56.975Z,1019.11
2023-01-03T02:00:56.967Z,1019.15
2023-01-03T02:01:57.155Z,1019.13
2023-01-03T02:02:57.052Z,1019.14
2023-01-03T02:03:56.954Z,1019.12
2023-01-03T02:04:56.959Z,1019.16
2023-01-03T02:05:56.912Z,1019.09
2023-01-03T02:06:56.904Z,1019.15
2023-01-03T02:07:56.885Z,1019.10
2023-01-03T02:08:56.876Z,1019.17
2023-01-03T02:09:56.868Z,1019.21
2023-01-03T02:10:56.854Z,1019.13
2023-01-03T02:11:56.850Z,1019.22
2023-01-03T02:12:56.832Z,1019.26
2023-01-03T02:13:56.826Z,1019.22
2023-01-03T02:14:56.800Z,1019.28
2023-01-03T02:15:56.858Z,1019.21
2023-01-03T02:16:56.813Z,1019.26
2023-01-03T02:17:56.794Z,1019.24
2023-01-03T02:18:56.761Z,1019.27
2023-01-03T02:19:56.767Z,1019.26
2023-01-03T02:20:56.743Z,1019.32
2023-01-03T02:21:56.734Z,1019.32
2023-01-03T02:22:56.717Z,1019.33
2023-01-03T02:23:56.715Z,1019.33
2023-01-03T02:24:56.686Z,1019.29
2023-01-03T02:25:56.729Z,1019.33
2023-01-03T02:26:56.680Z,1019.35
2023-01-03T02:27:56.677Z,1019.35
2023-01-03T02:28:56.661Z,1019.36
2023-01-03T02:29:56.653Z,1019.40
2023-01-03T02:30:56.696Z,1019.33
2023-01-03T02:31:56.619Z,1019.35
2023-01-03T02:32:56.600Z,1019.41
2023-01-03T02:33:56.624Z,1019.43
2023-01-03T02:34:56.573Z,1019.38
2023-01-03T02:35:56.593Z,1019.40
2023-01-03T02:36:56.565Z,1019.41
2023-01-03T02:37:56.553Z,1019.38
2023-01-03T02:38:56.533Z,1019.43
2023-01-03T02:39:56.535Z,1019.47
2023-01-03T02:40:56.531Z,1019.45
2023-01-03T02:41:56.534Z,1019.54
2023-01-03T02:42:56.509Z,1019.52
2023-01-03T02:43:56.499Z,1019.56
2023-01-03T02:44:56.475Z,1019.56
2023-01-03T02:45:56.472Z,1019.55
2023-01-03T02:46:56.551Z,1019.59
2023-01-03T02:47:56.451Z,1019.56
2023-01-03T02:48:56.428Z,1019.64
2023-01-03T02:49:56.440Z,1019.62
2023-01-03T02:50:56.407Z,1019.67
2023-01-03T02:51:56.413Z,1019.67
2023-01-03T02:52:56.390Z,1019.64
2023-01-03T02:53:56.413Z,1019.63
2023-01-03T02:54:56.379Z,1019.68
2023-01-03T02:55:56.386Z,1019.63
2023-01-03T02:56:56.345Z,1019.66
2023-01-03T02:57:56.330Z,1019.67
2023-01-03T02:58:56.324Z,1019.66
2023-01-03T02:59:56.308Z,1019.65
2023-01-03T03:00:56.324Z,1019.64
2023-01-03T03:01:56.508Z,1019.66
2023-01-03T03:02:56.380Z,1019.69
2023-01-03T03:03:56.341Z,1019.71
2023-01-03T03:04:56.252Z,1019.66
2023-01-03T03:05:56.249Z,1019.69
2023-01-03T03:06:56.228Z,1019.64
2023-01-03T03:07:56.243Z,1019.60
2023-01-03T03:08:56.196Z,1019.64
2023-01-03T03:09:56.188Z,1019.64
2023-01-03T03:10:56.196Z,1019.60
2023-01-03T03:11:56.174Z,1019.67
2023-01-03T03:12:56.152Z,1019.61
2023-01-03T03:13:56.154Z,1019.66
2023-01-03T03:14:56.129Z,1019.67
2023-01-03T03:15:56.193Z,1019.64
2023-01-03T03:16:56.117Z,1019.63
2023-01-03T03:17:56.104Z,1019.66
2023-01-03T03:18:56.091Z,1019.61
2023-01-03T03:19:56.102Z,1019.68
2023-01-03T03:20:56.086Z,1019.63
2023-01-03T03:21:56.056Z,1019.64
2023-01-03T03:22:56.047Z,1019.65
2023-01-03T03:23:56.051Z,1019.66
2023-01-03T03:24:56.037Z,1019.72
2023-01-03T03:25:56.018Z,1019.68
2023-01-03T03:26:55.998Z,1019.66
2023-01-03T03:27:56.020Z,1019.71
2023-01-03T03:28:55.983Z,1019.65
2023-01-03T03:29:55.967Z,1019.67
2023-01-03T03:30:56.047Z,1019.64
2023-01-03T03:31:56.012Z,1019.69
2023-01-03T03:32:55.935Z,1019.67
2023-01-03T03:33:55.919Z,1019.63
2023-01-03T03:34:55.939Z,1019.65
2023-01-03T03:35:55.908Z,1019.68
2023-01-03T03:36:55.898Z,1019.65
2023-01-03T03:37:55.884Z,1019.66
2023-01-03T03:38:55.865Z,1019.64
2023-01-03T03:39:55.872Z,1019.60
2023-01-03T03:40:55.839Z,1019.72
2023-01-03T03:41:55.830Z,1019.69
2023-01-03T03:42:55.824Z,1019.70
2023-01-03T03:43:55.822Z,1019.66
2023-01-03T03:45:01.121Z,1019.67
2023-01-03T03:45:56.798Z,1019.68
2023-01-03T03:46:55.837Z,1019.61
2023-01-03T03:47:55.763Z,1019.62
2023-01-03T03:48:55.752Z,1019.61
2023-01-03T03:49:55.751Z,1019.63
2023-01-03T03:50:55.774Z,1019.58
2023-01-03T03:51:55.726Z,1019.60
2023-01-03T03:52:55.714Z,1019.60
2023-01-03T03:53:55.693Z,1019.59
2023-01-03T03:54:55.709Z,1019.62
2023-01-03T03:55:55.710Z,1019.56
2023-01-03T03:56:55.702Z,1019.51
2023-01-03T03:57:55.664Z,1019.52
2023-01-03T03:58:55.637Z,1019.51
2023-01-03T03:59:55.626Z,1019.54
2023-01-03T04:00:55.616Z,1019.60
2023-01-03T04:01:55.816Z,1019.67
2023-01-03T04:02:55.790Z,1019.65
2023-01-03T04:03:55.666Z,1019.63
2023-01-03T04:04:55.580Z,1019.65
2023-01-03T04:05:55.561Z,1019.64
2023-01-03T04:06:55.578Z,1019.77
2023-01-03T04:07:55.548Z,1019.75
2023-01-03T04:08:55.553Z,1019.72
2023-01-03T04:09:55.530Z,1019.70
2023-01-03T04:10:55.513Z,1019.78
2023-01-03T04:11:55.521Z,1019.82
2023-01-03T04:12:55.484Z,1019.82
2023-01-03T04:13:55.482Z,1019.78
2023-01-03T04:14:55.510Z,1019.82
2023-01-03T04:15:55.551Z,1019.83
2023-01-03T04:16:55.516Z,1019.82
2023-01-03T04:17:55.436Z,1019.76
2023-01-03T04:18:55.413Z,1019.76
2023-01-03T04:19:55.406Z,1019.78
2023-01-03T04:20:55.400Z,1019.73
2023-01-03T04:21:55.405Z,1019.74
2023-01-03T04:22:55.374Z,1019.77
2023-01-03T04:23:55.364Z,1019.72
2023-01-03T04:24:55.380Z,1019.68
2023-01-03T04:25:55.345Z,1019.67
2023-01-03T04:26:55.336Z,1019.72
2023-01-03T04:27:55.413Z,1019.76
2023-01-03T04:28:55.312Z,1019.80
2023-01-03T04:29:55.300Z,1019.70
2023-01-03T04:30:55.285Z,1019.78
2023-01-03T04:31:55.457Z,1019.79
2023-01-03T04:32:55.255Z,1019.76
2023-01-03T04:33:55.252Z,1019.77
2023-01-03T04:34:55.253Z,1019.79
2023-01-03T04:35:55.238Z,1019.75
2023-01-03T04:36:55.225Z,1019.79
2023-01-03T04:37:55.207Z,1019.81
2023-01-03T04:38:55.192Z,1019.87
2023-01-03T04:39:55.196Z,1019.89
2023-01-03T04:40:55.181Z,1019.84
2023-01-03T04:41:55.162Z,1019.85
2023-01-03T04:42:55.145Z,1019.89
2023-01-03T04:43:55.161Z,1019.90
2023-01-03T04:44:55.144Z,1019.85
2023-01-03T04:45:55.226Z,1019.88
2023-01-03T04:46:55.101Z,1019.84
2023-01-03T04:47:55.102Z,1019.84
2023-01-03T04:48:55.113Z,1019.86
2023-01-03T04:49:55.087Z,1019.90
2023-01-03T04:50:55.068Z,1019.89
2023-01-03T04:51:55.070Z,1019.96
2023-01-03T04:52:55.050Z,1019.92
2023-01-03T04:53:55.051Z,1019.95
2023-01-03T04:54:55.038Z,1019.94
2023-01-03T04:55:55.011Z,1019.97
2023-01-03T04:56:55.049Z,1019.96
2023-01-03T04:57:55.001Z,1019.99
2023-01-03T04:58:54.967Z,1019.96
2023-01-03T04:59:54.989Z,1019.97
2023-01-03T05:00:54.988Z,1019.99
2023-01-03T05:01:55.040Z,1020.02
2023-01-03T05:02:54.921Z,1019.97
2023-01-03T05:03:54.938Z,1020.05
2023-01-03T05:04:54.897Z,1019.99
2023-01-03T05:05:54.898Z,1019.97
2023-01-03T05:06:54.910Z,1020.00
2023-01-03T05:07:54.871Z,1020.00
2023-01-03T05:08:54.860Z,1019.97
2023-01-03T05:09:54.849Z,1020.00
2023-01-03T05:10:54.834Z,1020.04
2023-01-03T05:11:54.859Z,1020.08
2023-01-03T05:12:54.816Z,1020.04
2023-01-03T05:13:54.805Z,1020.06
2023-01-03T05:14:54.789Z,1019.99
2023-01-03T05:15:54.924Z,1020.00
2023-01-03T05:16:54.794Z,1020.00
2023-01-03T05:17:54.771Z,1020.03
2023-01-03T05:18:54.756Z,1020.07
2023-01-03T05:19:54.734Z,1020.00
2023-01-03T05:20:54.723Z,1020.09
2023-01-03T05:21:54.722Z,1019.97
2023-01-03T05:22:54.702Z,1020.02
2023-01-03T05:23:54.707Z,1020.07
2023-01-03T05:24:54.680Z,1020.07
2023-01-03T05:25:54.669Z,1020.08
2023-01-03T05:26:54.650Z,1020.08
2023-01-03T05:27:54.647Z,1020.08
2023-01-03T05:28:54.663Z,1020.07
2023-01-03T05:29:54.646Z,1020.08
2023-01-03T05:30:54.609Z,1020.13
2023-01-03T05:31:54.662Z,1020.08
2023-01-03T05:32:54.582Z,1020.14
2023-01-03T05:33:54.591Z,1020.12
2023-01-03T05:34:54.570Z,1020.13
2023-01-03T05:35:54.566Z,1020.15
2023-01-03T05:36:54.576Z,1020.14
2023-01-03T05:37:54.530Z,1020.20
2023-01-03T05:38:54.532Z,1020.18
2023-01-03T05:39:54.545Z,1020.22
2023-01-03T05:40:54.501Z,1020.15
2023-01-03T05:41:54.485Z,1020.22
2023-01-03T05:42:54.470Z,1020.19
2023-01-03T05:43:54.466Z,1020.22
2023-01-03T05:44:54.475Z,1020.27
2023-01-03T05:45:54.500Z,1020.17
2023-01-03T05:46:54.455Z,1020.20
2023-01-03T05:47:54.459Z,1020.14
2023-01-03T05:48:54.417Z,1020.21
2023-01-03T05:49:54.410Z,1020.17
2023-01-03T05:50:54.401Z,1020.22
2023-01-03T05:51:54.399Z,1020.15
2023-01-03T05:52:54.365Z,1020.21
2023-01-03T05:53:54.371Z,1020.16
2023-01-03T05:54:54.350Z,1020.17
2023-01-03T05:55:54.360Z,1020.16
2023-01-03T05:56:54.335Z,1020.11
2023-01-03T05:57:54.320Z,1020.20
2023-01-03T05:58:54.308Z,1020.18
2023-01-03T05:59:54.288Z,1020.25
2023-01-03T06:00:54.281Z,1020.21
2023-01-03T06:01:54.396Z,1020.25
2023-01-03T06:02:54.335Z,1020.20
2023-01-03T06:03:54.360Z,1020.25
2023-01-03T06:04:54.238Z,1020.29
2023-01-03T06:05:54.243Z,1020.23
2023-01-03T06:06:54.221Z,1020.29
2023-01-03T06:07:54.216Z,1020.29
2023-01-03T06:08:54.198Z,1020.26
2023-01-03T06:09:54.174Z,1020.34
2023-01-03T06:10:54.174Z,1020.27
2023-01-03T06:11:54.148Z,1020.31
2023-01-03T06:12:54.151Z,1020.27
2023-01-03T06:13:54.138Z,1020.30
2023-01-03T06:14:54.126Z,1020.27
2023-01-03T06:15:54.145Z,1020.26
2023-01-03T06:16:54.242Z,1020.29
2023-01-03T06:17:54.084Z,1020.28
2023-01-03T06:18:54.088Z,1020.22
2023-01-03T06:19:54.192Z,1020.28
2023-01-03T06:20:54.064Z,1020.29
2023-01-03T06:21:54.044Z,1020.31
2023-01-03T06:22:54.050Z,1020.37
2023-01-03T06:23:54.019Z,1020.36
2023-01-03T06:24:54.020Z,1020.31
2023-01-03T06:25:54.006Z,1020.27
2023-01-03T06:26:54.018Z,1020.32
2023-01-03T06:27:53.987Z,1020.32
2023-01-03T06:28:53.967Z,1020.28
2023-01-03T06:29:53.959Z,1020.33
2023-01-03T06:30:54.061Z,1020.34
2023-01-03T06:31:53.939Z,1020.35
2023-01-03T06:32:53.948Z,1020.32
2023-01-03T06:33:53.917Z,1020.27
2023-01-03T06:34:53.924Z,1020.27
2023-01-03T06:35:53.903Z,1020.27
2023-01-03T06:36:53.891Z,1020.28
2023-01-03T06:37:53.879Z,1020.31
2023-01-03T06:38:53.886Z,1020.28
2023-01-03T06:39:53.843Z,1020.30
2023-01-03T06:40:53.851Z,1020.29
2023-01-03T06:41:53.821Z,1020.30
2023-01-03T06:43:00.893Z,1020.33
2023-01-03T06:43:53.790Z,1020.33
2023-01-03T06:44:53.787Z,1020.33
2023-01-03T06:45:53.925Z,1020.33
2023-01-03T06:46:53.783Z,1020.30
2023-01-03T06:47:53.770Z,1020.36
2023-01-03T06:48:53.762Z,1020.29
2023-01-03T06:49:53.736Z,1020.33
2023-01-03T06:50:53.726Z,1020.37
2023-01-03T06:51:53.723Z,1020.33
2023-01-03T06:52:53.706Z,1020.32
2023-01-03T06:53:53.693Z,1020.36
2023-01-03T06:54:53.702Z,1020.31
2023-01-03T06:55:57.192Z,1020.29
2023-01-03T06:56:53.654Z,1020.35
2023-01-03T06:57:53.638Z,1020.34
2023-01-03T06:58:53.657Z,1020.31
2023-01-03T06:59:53.616Z,1020.33
2023-01-03T07:00:53.617Z,1020.30
2023-01-03T07:01:53.660Z,1020.31
2023-01-03T07:02:53.846Z,1020.36
2023-01-03T07:03:53.641Z,1020.32
2023-01-03T07:04:53.735Z,1020.33
2023-01-03T07:05:53.555Z,1020.30
2023-01-03T07:06:53.554Z,1020.32
2023-01-03T07:07:53.603Z,1020.34
2023-01-03T07:08:53.515Z,1020.35
2023-01-03T07:09:53.508Z,1020.33
2023-01-03T07:10:53.529Z,1020.33
2023-01-03T07:11:53.485Z,1020.35
2023-01-03T07:12:53.474Z,1020.33
2023-01-03T07:13:53.471Z,1020.38
2023-01-03T07:14:53.449Z,1020.38
2023-01-03T07:15:53.510Z,1020.38
2023-01-03T07:16:53.435Z,1020.41
2023-01-03T07:17:53.410Z,1020.48
2023-01-03T07:18:55.591Z,1020.48
2023-01-03T07:19:53.395Z,1020.47
2023-01-03T07:20:53.385Z,1020.47
2023-01-03T07:21:53.381Z,1020.50
2023-01-03T07:22:53.366Z,1020.50
2023-01-03T07:23:53.367Z,1020.50
2023-01-03T07:24:53.346Z,1020.51
2023-01-03T07:25:53.333Z,1020.49
2023-01-03T07:26:53.319Z,1020.51
2023-01-03T07:27:53.304Z,1020.54
2023-01-03T07:28:53.317Z,1020.54
2023-01-03T07:29:53.289Z,1020.46
2023-01-03T07:30:53.330Z,1020.53
2023-01-03T07:31:53.354Z,1020.48
2023-01-03T07:32:53.271Z,1020.49
2023-01-03T07:33:53.323Z,1020.50
2023-01-03T07:34:53.236Z,1020.50
2023-01-03T07:35:53.217Z,1020.44
2023-01-03T07:36:53.221Z,1020.49
2023-01-03T07:37:53.221Z,1020.42
2023-01-03T07:38:53.193Z,1020.46
2023-01-03T07:39:53.196Z,1020.53
2023-01-03T07:40:53.197Z,1020.49
2023-01-03T07:41:53.155Z,1020.57
2023-01-03T07:42:53.138Z,1020.59
2023-01-03T07:43:53.124Z,1020.50
2023-01-03T07:44:53.116Z,1020.50
2023-01-03T07:45:53.163Z,1020.50
2023-01-03T07:46:53.212Z,1020.52
2023-01-03T07:47:53.078Z,1020.53
2023-01-03T07:48:53.068Z,1020.50
2023-01-03T07:49:53.055Z,1020.50
2023-01-03T07:50:53.047Z,1020.46
2023-01-03T07:51:53.057Z,1020.47
2023-01-03T07:52:53.031Z,1020.46
2023-01-03T07:53:53.009Z,1020.51
2023-01-03T07:54:53.005Z,1020.46
2023-01-03T07:55:53.012Z,1020.47
2023-01-03T07:56:52.989Z,1020.49
2023-01-03T07:57:52.972Z,1020.42
2023-01-03T07:58:52.977Z,1020.46
2023-01-03T07:59:52.945Z,1020.43
2023-01-03T08:00:52.932Z,1020.38
2023-01-03T08:01:53.057Z,1020.41
2023-01-03T08:02:53.078Z,1020.45
2023-01-03T08:03:52.909Z,1020.38
2023-01-03T08:04:52.998Z,1020.40
2023-01-03T08:05:52.876Z,1020.38
2023-01-03T08:06:52.880Z,1020.36
2023-01-03T08:07:52.879Z,1020.36
2023-01-03T08:08:52.858Z,1020.42
2023-01-03T08:09:52.832Z,1020.44
2023-01-03T08:10:52.824Z,1020.50
2023-01-03T08:11:52.839Z,1020.47
2023-01-03T08:12:52.814Z,1020.50
2023-01-03T08:13:52.795Z,1020.51
2023-01-03T08:14:52.788Z,1020.46
2023-01-03T08:15:52.826Z,1020.50
2023-01-03T08:16:52.805Z,1020.50
2023-01-03T08:17:52.782Z,1020.46
2023-01-03T08:18:52.747Z,1020.42
2023-01-03T08:19:52.722Z,1020.49
2023-01-03T08:20:52.721Z,1020.42
2023-01-03T08:21:52.743Z,1020.47
2023-01-03T08:22:52.691Z,1020.44
2023-01-03T08:23:52.679Z,1020.46
2023-01-03T08:24:52.669Z,1020.45
2023-01-03T08:25:52.675Z,1020.42
2023-01-03T08:26:52.659Z,1020.45
2023-01-03T08:27:52.680Z,1020.41
2023-01-03T08:28:52.624Z,1020.41
2023-01-03T08:29:52.608Z,1020.40
2023-01-03T08:30:52.663Z,1020.42
2023-01-03T08:31:52.779Z,1020.51
2023-01-03T08:32:52.582Z,1020.40
2023-01-03T08:33:52.581Z,1020.46
2023-01-03T08:34:52.561Z,1020.41
2023-01-03T08:35:52.554Z,1020.45
2023-01-03T08:36:52.536Z,1020.50
2023-01-03T08:37:52.527Z,1020.58
2023-01-03T08:38:52.527Z,1020.57
2023-01-03T08:39:52.498Z,1020.69
2023-01-03T08:40:52.502Z,1020.65
2023-01-03T08:41:52.474Z,1020.69
2023-01-03T08:42:52.469Z,1020.73
2023-01-03T08:43:52.483Z,1020.73
2023-01-03T08:44:52.447Z,1020.69
2023-01-03T08:45:52.453Z,1020.66
2023-01-03T08:46:52.531Z,1020.71
2023-01-03T08:47:52.410Z,1020.54
2023-01-03T08:48:52.408Z,1020.65
2023-01-03T08:49:52.419Z,1020.65
2023-01-03T08:50:52.387Z,1020.68
2023-01-03T08:51:52.396Z,1020.77
2023-01-03T08:52:52.376Z,1020.68
2023-01-03T08:53:52.347Z,1020.79
2023-01-03T08:54:52.339Z,1020.70
2023-01-03T08:55:52.333Z,1020.67
2023-01-03T08:56:52.312Z,1020.74
2023-01-03T08:57:52.320Z,1020.71
2023-01-03T08:58:52.290Z,1020.72
2023-01-03T08:59:52.297Z,1020.68
2023-01-03T09:00:52.288Z,1020.70
2023-01-03T09:01:52.545Z,1020.76
2023-01-03T09:02:52.524Z,1020.67
2023-01-03T09:03:52.451Z,1020.68
2023-01-03T09:04:52.244Z,1020.72
2023-01-03T09:05:52.218Z,1020.70
2023-01-03T09:06:52.209Z,1020.75
2023-01-03T09:07:52.194Z,1020.75
2023-01-03T09:08:52.190Z,1020.77
2023-01-03T09:09:52.183Z,1020.80
2023-01-03T09:10:52.170Z,1020.73
2023-01-03T09:11:52.143Z,1020.68
2023-01-03T09:12:52.154Z,1020.75
2023-01-03T09:13:52.127Z,1020.71
2023-01-03T09:14:52.113Z,1020.68
2023-01-03T09:15:52.126Z,1020.70
2023-01-03T09:16:52.170Z,1020.67
2023-01-03T09:17:52.086Z,1020.74
2023-01-03T09:18:52.069Z,1020.72
2023-01-03T09:19:52.066Z,1020.63
2023-01-03T09:20:52.056Z,1020.71
2023-01-03T09:21:52.039Z,1020.25
2023-01-03T09:22:52.065Z,1020.34
2023-01-03T09:23:52.014Z,1020.33
2023-01-03T09:24:52.017Z,1020.46
2023-01-03T09:25:51.988Z,1020.39
2023-01-03T09:26:54.731Z,1020.39
2023-01-03T09:27:51.971Z,1020.36
2023-01-03T09:28:51.967Z,1020.39
2023-01-03T09:29:51.938Z,1020.35
2023-01-03T09:30:51.933Z,1020.41
2023-01-03T09:31:52.201Z,1020.38
2023-01-03T09:32:51.923Z,1020.36
2023-01-03T09:33:51.907Z,1020.32
2023-01-03T09:34:51.903Z,1020.34
2023-01-03T09:35:51.878Z,1020.33
2023-01-03T09:36:51.865Z,1020.37
2023-01-03T09:37:51.866Z,1020.36
2023-01-03T09:38:51.857Z,1020.36
2023-01-03T09:39:51.845Z,1020.32
2023-01-03T09:40:51.825Z,1020.44
2023-01-03T09:41:51.807Z,1020.43
2023-01-03T09:42:51.827Z,1020.47
2023-01-03T09:43:51.788Z,1020.46
2023-01-03T09:44:51.778Z,1020.43
2023-01-03T09:45:51.785Z,1020.43
2023-01-03T09:46:51.808Z,1020.47
2023-01-03T09:47:51.851Z,1020.44
2023-01-03T09:48:51.754Z,1020.43
2023-01-03T09:50:26.664Z,1020.47
2023-01-03T09:51:21.097Z,1020.43
2023-01-03T09:51:52.701Z,1020.45
2023-01-03T09:52:51.712Z,1020.42
2023-01-03T09:53:51.690Z,1020.49
2023-01-03T09:54:51.674Z,1020.47
2023-01-03T09:55:51.663Z,1020.49
2023-01-03T09:56:51.652Z,1020.57
2023-01-03T09:57:51.644Z,1020.58
2023-01-03T09:58:51.629Z,1020.45
2023-01-03T09:59:51.627Z,1020.52
2023-01-03T10:00:51.671Z,1020.44
2023-01-03T10:01:51.932Z,1020.42
2023-01-03T10:02:51.806Z,1020.45
2023-01-03T10:03:52.524Z,1020.45
2023-01-03T10:04:51.568Z,1020.51
2023-01-03T10:05:51.558Z,1020.43
2023-01-03T10:06:51.569Z,1020.49
2023-01-03T10:07:51.531Z,1020.45
2023-01-03T10:08:51.524Z,1020.50
2023-01-03T10:09:51.509Z,1020.45
2023-01-03T10:10:51.496Z,1020.49
2023-01-03T10:11:51.496Z,1020.50
2023-01-03T10:12:51.482Z,1020.49
2023-01-03T10:13:51.461Z,1020.46
2023-01-03T10:14:51.455Z,1020.44
2023-01-03T10:15:51.436Z,1020.51
2023-01-03T10:16:51.465Z,1020.50
2023-01-03T10:17:51.415Z,1020.49
2023-01-03T10:18:51.416Z,1020.44
2023-01-03T10:19:51.429Z,1020.41
2023-01-03T10:20:51.397Z,1020.40
2023-01-03T10:21:51.369Z,1020.33
2023-01-03T10:22:51.367Z,1020.41
2023-01-03T10:23:51.348Z,1020.42
2023-01-03T10:24:51.356Z,1020.39
2023-01-03T10:25:51.333Z,1020.45
2023-01-03T10:26:51.314Z,1020.38
2023-01-03T10:27:51.299Z,1020.39
2023-01-03T10:28:51.301Z,1020.40
2023-01-03T10:29:51.275Z,1020.38
2023-01-03T10:30:58.347Z,1020.38
2023-01-03T10:31:52.330Z,1020.47
2023-01-03T10:32:51.244Z,1020.47
2023-01-03T10:33:51.232Z,1020.47
2023-01-03T10:34:51.222Z,1020.44
2023-01-03T10:35:51.243Z,1020.44
2023-01-03T10:36:51.210Z,1020.50
2023-01-03T10:37:51.215Z,1020.47
2023-01-03T10:38:53.243Z,1020.44
2023-01-03T10:39:51.168Z,1020.44
2023-01-03T10:40:51.162Z,1020.44
2023-01-03T10:41:51.162Z,1020.38
2023-01-03T10:42:51.126Z,1020.38
2023-01-03T10:43:51.136Z,1020.43
2023-01-03T10:44:51.104Z,1020.41
2023-01-03T10:45:51.152Z,1020.41
2023-01-03T10:46:51.194Z,1020.41
2023-01-03T10:47:51.083Z,1020.35
2023-01-03T10:49:52.058Z,1020.35
2023-01-03T10:50:51.079Z,1020.38
2023-01-03T10:51:51.079Z,1020.34
2023-01-03T10:52:51.030Z,1020.31
2023-01-03T10:53:51.004Z,1020.30
2023-01-03T10:54:51.000Z,1020.33
2023-01-03T10:55:51.001Z,1020.25
2023-01-03T10:56:50.975Z,1020.34
2023-01-03T10:57:51.000Z,1020.28
2023-01-03T10:58:50.945Z,1020.24
2023-01-03T10:59:50.966Z,1020.26
2023-01-03T11:00:50.955Z,1020.23
2023-01-03T11:01:51.126Z,1020.25
2023-01-03T11:02:51.070Z,1020.22
2023-01-03T11:03:51.782Z,1020.25
2023-01-03T11:04:50.901Z,1020.26
2023-01-03T11:05:50.879Z,1020.24
2023-01-03T11:06:50.866Z,1020.18
2023-01-03T11:07:50.873Z,1020.20
2023-01-03T11:08:50.848Z,1020.14
2023-01-03T11:09:51.889Z,1020.22
2023-01-03T11:10:50.824Z,1020.13
2023-01-03T11:11:50.804Z,1020.13
2023-01-03T11:12:50.799Z,1020.06
2023-01-03T11:13:50.799Z,1020.13
2023-01-03T11:14:50.765Z,1020.14
2023-01-03T11:15:50.772Z,1020.15
2023-01-03T11:16:50.808Z,1020.11
2023-01-03T11:17:50.742Z,1020.12
2023-01-03T11:18:50.763Z,1020.07
2023-01-03T11:19:50.735Z,1020.13
2023-01-03T11:20:50.726Z,1020.08
2023-01-03T11:21:50.717Z,1020.03
2023-01-03T11:22:50.690Z,1020.01
2023-01-03T11:23:50.720Z,1019.98
2023-01-03T11:24:50.669Z,1020.06
2023-01-03T11:25:50.661Z,1020.03
2023-01-03T11:26:50.640Z,1020.00
2023-01-03T11:27:50.622Z,1019.95
2023-01-03T11:28:50.617Z,1019.99
2023-01-03T11:29:50.614Z,1019.97
2023-01-03T11:30:50.587Z,1019.97
2023-01-03T11:31:50.645Z,1019.98
2023-01-03T11:32:50.564Z,1020.00
2023-01-03T11:33:50.561Z,1019.99
2023-01-03T11:35:21.664Z,1019.99
2023-01-03T11:35:51.553Z,1019.96
2023-01-03T11:36:50.524Z,1019.93
2023-01-03T11:37:50.528Z,1019.99
2023-01-03T11:38:50.504Z,1019.98
2023-01-03T11:39:50.526Z,1020.00
2023-01-03T11:40:50.482Z,1019.98
2023-01-03T11:41:50.472Z,1019.95
2023-01-03T11:42:50.451Z,1020.02
2023-01-03T11:43:50.454Z,1019.97
2023-01-03T11:44:50.438Z,1020.00
2023-01-03T11:45:50.479Z,1019.98
2023-01-03T11:46:50.448Z,1019.93
2023-01-03T11:47:50.415Z,1019.94
2023-01-03T11:48:50.387Z,1020.02
2023-01-03T11:49:50.382Z,1019.87
2023-01-03T11:50:50.464Z,1019.99
2023-01-03T11:51:50.357Z,1019.93
2023-01-03T11:52:50.343Z,1019.97
2023-01-03T11:53:50.345Z,1019.93
2023-01-03T11:54:53.448Z,1019.87
2023-01-03T11:55:50.405Z,1019.92
2023-01-03T11:56:50.305Z,1019.89
2023-01-03T11:57:50.288Z,1019.84
2023-01-03T11:58:50.280Z,1019.92
2023-01-03T11:59:50.275Z,1019.87
2023-01-03T12:00:50.268Z,1019.78
2023-01-03T12:01:50.275Z,1019.87
2023-01-03T12:02:50.304Z,1019.81
2023-01-03T12:03:50.367Z,1019.85
2023-01-03T12:04:50.221Z,1019.87
2023-01-03T12:05:50.214Z,1019.84
2023-01-03T12:06:50.188Z,1019.83